Time;durP1;ratioP1;P1;durP2;ratioP2;P2;SDS_P1;SDS_P2;PMS_P1;PMS_P2;Temp;Humidity;BMP_temperature;BMP_pressure;BME280_temperature;BME280_humidity;BME280_pressure;Samples;Min_cycle;Max_cycle;Signal;HPM_P1;HPM_P2
2022/09/01 00:02:17;;;;;;;13.52;5.07;;;;;;;20.28;100.00;99243.38;5063984;28;20181;-94
2022/09/01 00:04:44;;;;;;;14.60;4.75;;;;;;;20.06;100.00;99236.31;5062386;28;20044;-93
2022/09/01 00:07:11;;;;;;;14.38;4.95;;;;;;;20.04;100.00;99245.22;5047300;28;20521;-93
2022/09/01 00:09:38;;;;;;;12.38;4.95;;;;;;;19.81;100.00;99241.72;5048090;28;20037;-94
2022/09/01 00:12:06;;;;;;;14.75;4.88;;;;;;;19.90;100.00;99240.47;5051655;28;20134;-94
2022/09/01 00:14:35;;;;;;;12.05;5.10;;;;;;;19.78;100.00;99245.31;5065021;28;20047;-92
2022/09/01 00:17:05;;;;;;;11.52;5.07;;;;;;;20.08;100.00;99242.41;5055965;28;20790;-95
2022/09/01 00:19:32;;;;;;;20.98;5.55;;;;;;;19.69;100.00;99243.00;5065098;28;20040;-93
2022/09/01 00:21:59;;;;;;;14.15;5.40;;;;;;;19.72;100.00;99239.38;5059761;28;20044;-93
2022/09/01 00:24:25;;;;;;;14.32;5.50;;;;;;;19.30;100.00;99237.47;5051464;28;20028;-94
2022/09/01 00:26:52;;;;;;;13.82;5.18;;;;;;;20.01;100.00;99237.41;5055657;28;20033;-95
2022/09/01 00:29:18;;;;;;;14.13;5.60;;;;;;;19.74;100.00;99238.41;5051508;28;20028;-93
2022/09/01 00:31:44;;;;;;;15.68;5.60;;;;;;;19.74;100.00;99242.84;5049324;28;20052;-93
2022/09/01 00:34:10;;;;;;;11.90;5.60;;;;;;;19.70;100.00;99222.72;5064466;28;20045;-93
2022/09/01 00:36:38;;;;;;;18.92;5.60;;;;;;;19.59;100.00;99231.06;5059717;28;20033;-93
2022/09/01 00:39:05;;;;;;;15.75;5.32;;;;;;;18.99;100.00;99230.66;5057460;28;20062;-93
2022/09/01 00:41:32;;;;;;;13.10;5.30;;;;;;;19.57;100.00;99236.41;5059512;28;20040;-93
2022/09/01 00:44:06;;;;;;;12.98;5.40;;;;;;;18.82;100.00;99221.50;5058836;28;20048;-93
2022/09/01 00:46:37;;;;;;;14.20;5.20;;;;;;;19.55;100.00;99224.16;5058808;28;20024;-93
2022/09/01 00:49:38;;;;;;;12.85;4.85;;;;;;;19.38;100.00;99228.31;5053437;28;20044;-93
2022/09/01 00:52:09;;;;;;;11.07;5.28;;;;;;;19.46;100.00;99228.03;5016024;28;20040;-93
2022/09/01 00:54:44;;;;;;;11.77;5.30;;;;;;;19.41;100.00;99225.53;5046052;28;20047;-94
2022/09/01 00:57:11;;;;;;;13.48;5.97;;;;;;;19.70;100.00;99231.50;5047579;28;20500;-93
2022/09/01 00:59:48;;;;;;;13.82;5.65;;;;;;;19.80;100.00;99225.91;5044713;28;20033;-92
2022/09/01 01:02:14;;;;;;;14.07;5.80;;;;;;;19.66;100.00;99223.75;5052249;28;20025;-94
2022/09/01 01:04:42;;;;;;;17.42;6.10;;;;;;;19.26;100.00;99218.19;5050742;28;20190;-93
2022/09/01 01:07:10;;;;;;;15.52;5.50;;;;;;;19.04;100.00;99213.72;5050094;28;20059;-94
2022/09/01 01:09:39;;;;;;;15.50;5.95;;;;;;;19.23;100.00;99216.53;5050030;28;20128;-95
2022/09/01 01:12:06;;;;;;;13.48;6.32;;;;;;;19.28;100.00;99206.63;5053689;28;20028;-95
2022/09/01 01:14:35;;;;;;;14.70;6.13;;;;;;;19.33;100.00;99208.25;5049278;28;20048;-93
2022/09/01 01:17:01;;;;;;;13.43;6.38;;;;;;;19.82;100.00;99205.50;5052432;28;20033;-93
2022/09/01 01:25:12;;;;;;;16.40;6.50;;;;;;;19.20;100.00;99208.69;5054618;28;20072;-94
2022/09/01 01:27:42;;;;;;;16.08;6.75;;;;;;;19.81;100.00;99199.38;5063355;28;20028;-96
2022/09/01 01:30:10;;;;;;;17.10;6.68;;;;;;;19.71;100.00;99198.00;5062770;28;20167;-94
2022/09/01 01:32:41;;;;;;;18.60;7.38;;;;;;;19.32;100.00;99195.94;5054708;28;20028;-95
2022/09/01 01:35:14;;;;;;;16.52;7.03;;;;;;;18.73;100.00;99191.00;5055818;28;20036;-95
2022/09/01 01:37:47;;;;;;;13.30;6.47;;;;;;;19.59;100.00;99191.38;5054602;28;20028;-96
2022/09/01 01:40:15;;;;;;;13.95;6.65;;;;;;;19.41;100.00;99195.59;5057123;28;20040;-95
2022/09/01 01:42:46;;;;;;;14.85;6.72;;;;;;;19.03;100.00;99195.25;5051258;28;20028;-94
2022/09/01 01:45:16;;;;;;;14.40;6.72;;;;;;;18.72;100.00;99193.69;5058227;28;20052;-94
2022/09/01 01:47:46;;;;;;;20.10;7.32;;;;;;;19.25;100.00;99193.53;5059900;28;20032;-93
2022/09/01 01:50:13;;;;;;;15.75;6.95;;;;;;;19.69;100.00;99197.16;5055315;28;20124;-93
2022/09/01 01:52:39;;;;;;;14.50;7.05;;;;;;;19.78;100.00;99194.16;5052176;28;20064;-93
2022/09/01 01:55:11;;;;;;;16.85;7.95;;;;;;;19.54;100.00;99180.09;5057403;28;20055;-93
2022/09/01 01:57:47;;;;;;;16.70;8.27;;;;;;;19.88;100.00;99194.69;5051481;28;20024;-91
2022/09/01 02:00:18;;;;;;;16.77;8.18;;;;;;;19.29;100.00;99191.66;5055998;28;20292;-93
2022/09/01 02:02:51;;;;;;;16.13;8.60;;;;;;;19.54;100.00;99190.69;5048742;28;20028;-90
2022/09/01 02:05:23;;;;;;;18.38;9.10;;;;;;;19.20;100.00;99181.41;5048711;28;20017;-91
2022/09/01 02:07:51;;;;;;;18.23;9.25;;;;;;;19.58;100.00;99192.28;5062933;28;20169;-92
2022/09/01 02:10:17;;;;;;;16.05;8.48;;;;;;;19.77;100.00;99188.00;5047397;28;20029;-92
2022/09/01 02:12:42;;;;;;;17.02;8.25;;;;;;;19.42;100.00;99189.41;5047097;28;20460;-94
2022/09/01 02:15:11;;;;;;;14.27;8.18;;;;;;;19.90;100.00;99188.41;5053318;28;20025;-95
2022/09/01 02:17:38;;;;;;;18.02;8.55;;;;;;;19.65;100.00;99188.47;5057312;28;20040;-94
2022/09/01 02:20:05;;;;;;;17.10;8.38;;;;;;;19.22;100.00;99190.13;5056729;28;20773;-93
2022/09/01 02:22:31;;;;;;;18.05;9.10;;;;;;;18.96;100.00;99191.13;5053826;28;20033;-94
2022/09/01 02:24:59;;;;;;;19.17;8.43;;;;;;;19.05;100.00;99183.72;5058025;28;20039;-93
2022/09/01 02:27:28;;;;;;;17.08;8.35;;;;;;;19.51;100.00;99188.16;5052454;28;20415;-93
2022/09/01 02:29:54;;;;;;;16.75;8.18;;;;;;;19.18;100.00;99178.81;5059012;28;20028;-92
2022/09/01 02:32:20;;;;;;;18.95;8.82;;;;;;;19.68;100.00;99179.56;5043772;28;20112;-92
2022/09/01 02:34:52;;;;;;;16.85;8.52;;;;;;;19.91;100.00;99173.38;5054797;28;20025;-92
2022/09/01 02:37:24;;;;;;;17.35;8.45;;;;;;;19.12;100.00;99178.19;5062684;28;20119;-93
2022/09/01 02:39:56;;;;;;;16.40;8.10;;;;;;;20.28;100.00;99179.81;5048759;28;20174;-93
2022/09/01 02:42:26;;;;;;;17.10;8.07;;;;;;;20.33;100.00;99174.31;5054737;28;20021;-93
2022/09/01 02:44:55;;;;;;;17.60;7.60;;;;;;;20.37;100.00;99171.47;5053996;28;22135;-93
2022/09/01 02:47:25;;;;;;;15.38;8.15;;;;;;;20.16;100.00;99170.59;5056384;28;20522;-92
2022/09/01 02:49:51;;;;;;;16.40;8.10;;;;;;;20.10;100.00;99173.50;5049585;28;20063;-92
2022/09/01 02:52:19;;;;;;;20.20;8.20;;;;;;;19.82;100.00;99168.47;5049682;28;20591;-92
2022/09/01 02:54:48;;;;;;;15.70;8.70;;;;;;;18.84;100.00;99173.88;5050094;28;20584;-90
2022/09/01 02:57:14;;;;;;;15.10;7.90;;;;;;;19.32;100.00;99170.38;5053252;28;20033;-91
2022/09/01 02:59:41;;;;;;;17.95;8.73;;;;;;;19.36;100.00;99166.69;5056440;28;20031;-91
2022/09/01 03:02:08;;;;;;;15.07;8.48;;;;;;;19.67;100.00;99169.94;5051448;28;20028;-92
2022/09/01 03:04:34;;;;;;;16.48;7.32;;;;;;;19.27;100.00;99167.88;5057983;28;20033;-93
2022/09/01 03:07:05;;;;;;;19.52;7.93;;;;;;;18.79;100.00;99159.97;5061539;28;20032;-93
2022/09/01 03:09:34;;;;;;;16.38;7.20;;;;;;;18.93;100.00;99157.75;5052120;28;20033;-91
2022/09/01 03:12:00;;;;;;;18.65;7.65;;;;;;;20.19;100.00;99159.00;5055867;28;20036;-91
2022/09/01 03:14:25;;;;;;;16.10;6.95;;;;;;;20.78;100.00;99163.53;5061104;28;20506;-93
2022/09/01 03:16:51;;;;;;;21.40;7.28;;;;;;;20.97;100.00;99160.94;5062860;28;20534;-92
2022/09/01 03:19:17;;;;;;;24.73;7.65;;;;;;;20.55;100.00;99161.84;5060922;28;20038;-91
2022/09/01 03:21:45;;;;;;;17.85;7.20;;;;;;;20.23;100.00;99153.50;5058914;28;20488;-89
2022/09/01 03:24:15;;;;;;;15.05;7.53;;;;;;;20.21;100.00;99160.66;5059055;28;20020;-91
2022/09/01 03:26:42;;;;;;;14.57;6.63;;;;;;;20.15;100.00;99158.25;5046989;28;20455;-91
2022/09/01 03:29:08;;;;;;;15.48;7.43;;;;;;;19.77;100.00;99150.09;5052379;28;20028;-93
2022/09/01 03:31:35;;;;;;;17.95;7.30;;;;;;;20.64;100.00;99155.31;5055234;28;20033;-90
2022/09/01 03:34:02;;;;;;;14.27;6.88;;;;;;;20.17;100.00;99153.78;5052438;28;20097;-92
2022/09/01 03:36:28;;;;;;;15.23;7.20;;;;;;;19.75;100.00;99149.31;5055973;28;20016;-90
2022/09/01 03:38:55;;;;;;;18.13;7.72;;;;;;;20.58;100.00;99148.47;5049299;28;20454;-90
2022/09/01 03:41:24;;;;;;;14.95;7.15;;;;;;;19.93;100.00;99150.34;5052714;28;20017;-91
2022/09/01 03:43:53;;;;;;;14.38;7.40;;;;;;;20.22;100.00;99159.75;5052260;28;20056;-93
2022/09/01 03:46:20;;;;;;;15.57;6.63;;;;;;;20.08;100.00;99149.75;5060989;28;20369;-92
2022/09/01 03:48:54;;;;;;;14.88;6.47;;;;;;;20.51;100.00;99156.78;5059484;28;20036;-93
2022/09/01 03:51:22;;;;;;;18.40;7.10;;;;;;;20.39;100.00;99151.09;5054189;28;20028;-92
2022/09/01 03:53:53;;;;;;;21.17;8.00;;;;;;;21.00;100.00;99151.09;5061142;28;20143;-92
2022/09/01 03:56:18;;;;;;;19.92;7.38;;;;;;;20.45;100.00;99147.31;5052653;28;20056;-92
2022/09/01 03:58:45;;;;;;;17.08;7.00;;;;;;;20.73;100.00;99152.28;5059120;28;20056;-93
2022/09/01 04:01:12;;;;;;;14.38;6.90;;;;;;;21.01;100.00;99140.41;5056609;28;20028;-93
2022/09/01 04:03:40;;;;;;;16.23;6.00;;;;;;;19.15;100.00;99135.78;5056490;28;20051;-92
2022/09/01 04:06:08;;;;;;;41.40;7.60;;;;;;;19.70;100.00;99133.59;5065102;28;20482;-92
2022/09/01 04:08:33;;;;;;;16.10;7.15;;;;;;;19.85;100.00;99137.44;5060584;28;20044;-93
2022/09/01 04:14:13;;;;;;;14.67;6.97;;;;;;;20.54;100.00;99130.13;5051437;28;20070;-93
2022/09/01 04:19:25;;;;;;;16.90;7.85;;;;;;;20.42;100.00;99129.75;5066040;28;20059;-92
2022/09/01 04:22:00;;;;;;;14.27;6.45;;;;;;;20.61;100.00;99134.22;5060240;28;20529;-90
2022/09/01 04:24:28;;;;;;;15.93;6.75;;;;;;;20.33;100.00;99132.78;5064536;28;20020;-93
2022/09/01 04:26:57;;;;;;;15.25;6.75;;;;;;;20.00;100.00;99127.13;5058134;28;20891;-91
2022/09/01 04:29:27;;;;;;;30.10;7.05;;;;;;;19.86;100.00;99128.59;5052456;28;20032;-92
2022/09/01 04:32:02;;;;;;;45.22;8.23;;;;;;;19.78;100.00;99120.91;5060978;28;20025;-91
2022/09/01 04:34:35;;;;;;;18.77;7.38;;;;;;;20.20;100.00;99119.22;5058250;28;20052;-91
2022/09/01 04:37:05;;;;;;;50.88;8.18;;;;;;;19.01;100.00;99121.31;5061102;28;20028;-91
2022/09/01 04:39:31;;;;;;;34.17;8.52;;;;;;;18.57;100.00;99113.22;5052606;28;20067;-92
2022/09/01 04:41:56;;;;;;;18.73;7.82;;;;;;;19.11;100.00;99111.25;5059752;28;20495;-91
2022/09/01 04:44:24;;;;;;;18.17;8.27;;;;;;;20.21;100.00;99118.31;5062101;28;20498;-92
2022/09/01 04:46:50;;;;;;;24.02;8.48;;;;;;;18.80;100.00;99111.50;5057882;28;20044;-91
2022/09/01 04:49:25;;;;;;;43.88;9.73;;;;;;;18.96;100.00;99117.13;5058861;28;20693;-91
2022/09/01 04:51:53;;;;;;;30.52;8.80;;;;;;;18.55;100.00;99109.75;5055621;28;20029;-91
2022/09/01 04:54:23;;;;;;;32.72;8.57;;;;;;;19.38;100.00;99111.94;5059330;28;20045;-92
2022/09/01 04:56:53;;;;;;;14.93;8.20;;;;;;;19.49;100.00;99114.16;5074984;28;20028;-91
2022/09/01 04:59:26;;;;;;;35.55;9.27;;;;;;;20.35;100.00;99117.69;5074984;28;20143;-91
2022/09/01 05:01:53;;;;;;;16.13;8.57;;;;;;;19.32;100.00;99106.03;5070881;28;20035;-92
2022/09/01 05:04:26;;;;;;;19.45;8.43;;;;;;;19.25;100.00;99113.34;5059726;28;20097;-91
2022/09/01 05:06:59;;;;;;;19.77;9.48;;;;;;;19.40;100.00;99114.53;5065638;28;20393;-92
2022/09/01 05:09:29;;;;;;;19.33;9.57;;;;;;;20.31;100.00;99121.41;5054473;28;20690;-92
2022/09/01 05:11:55;;;;;;;19.73;10.02;;;;;;;20.61;100.00;99113.03;5076474;28;20044;-92
2022/09/01 05:14:21;;;;;;;20.75;9.68;;;;;;;20.92;100.00;99111.69;5071436;28;20029;-92
2022/09/01 05:16:49;;;;;;;20.25;9.65;;;;;;;19.62;100.00;99117.16;5063431;28;20056;-91
2022/09/01 05:19:16;;;;;;;18.80;9.35;;;;;;;19.71;100.00;99108.03;5081677;28;20020;-91
2022/09/01 05:21:46;;;;;;;19.10;9.13;;;;;;;20.29;100.00;99112.66;5070930;28;20033;-91
2022/09/01 05:24:17;;;;;;;23.40;8.50;;;;;;;19.83;100.00;99111.97;5054252;28;20017;-91
2022/09/01 05:26:46;;;;;;;23.90;10.10;;;;;;;18.86;100.00;99106.84;5069916;28;20028;-90
2022/09/01 05:29:15;;;;;;;35.15;10.27;;;;;;;19.29;100.00;99109.69;5076996;28;20500;-91
2022/09/01 05:31:43;;;;;;;42.65;11.60;;;;;;;19.28;100.00;99100.00;5080687;28;20031;-91
2022/09/01 05:34:09;;;;;;;19.30;9.80;;;;;;;19.50;100.00;99104.44;5079044;28;20052;-91
2022/09/01 05:36:39;;;;;;;87.50;13.35;;;;;;;20.24;100.00;99099.63;5082697;28;20024;-92
2022/09/01 05:39:06;;;;;;;18.20;9.48;;;;;;;21.33;100.00;99108.03;5079501;28;20039;-91
2022/09/01 05:41:34;;;;;;;22.38;9.82;;;;;;;21.04;100.00;99100.50;5074935;28;20037;-90
2022/09/01 05:44:05;;;;;;;24.40;9.35;;;;;;;20.85;100.00;99103.16;5081602;28;20056;-90
2022/09/01 05:46:32;;;;;;;20.77;9.52;;;;;;;20.69;100.00;99112.72;5071709;28;20032;-91
2022/09/01 05:48:58;;;;;;;43.53;10.95;;;;;;;20.71;100.00;99095.84;5070660;28;20069;-91
2022/09/01 05:51:29;;;;;;;67.60;11.88;;;;;;;20.86;100.00;99101.34;5054055;28;20021;-93
2022/09/01 05:53:58;;;;;;;35.08;10.52;;;;;;;21.42;100.00;99099.63;5075190;28;20052;-90
2022/09/01 05:56:25;;;;;;;118.32;14.60;;;;;;;20.85;100.00;99097.84;5072705;28;20059;-93
2022/09/01 05:58:52;;;;;;;41.88;9.95;;;;;;;21.08;100.00;99102.06;5061434;28;20035;-92
2022/09/01 06:01:25;;;;;;;43.47;10.68;;;;;;;20.16;100.00;99098.25;5070645;28;20733;-91
2022/09/01 06:03:53;;;;;;;25.35;11.50;;;;;;;20.84;100.00;99098.78;5059510;28;20059;-91
2022/09/01 06:06:24;;;;;;;26.45;11.63;;;;;;;20.56;100.00;99104.44;5059231;28;21147;-92
2022/09/01 06:08:57;;;;;;;18.92;11.38;;;;;;;20.71;100.00;99109.09;5082760;28;20550;-92
2022/09/01 06:11:24;;;;;;;29.27;12.27;;;;;;;21.18;100.00;99104.31;5057139;28;20016;-92
2022/09/01 06:13:51;;;;;;;22.23;11.13;;;;;;;21.78;100.00;99104.97;5056073;28;20118;-92
2022/09/01 06:19:44;;;;;;;17.67;9.55;;;;;;;21.67;100.00;99109.94;5069748;28;20036;-92
2022/09/01 06:22:11;;;;;;;21.60;10.30;;;;;;;19.94;100.00;99109.72;5052841;28;20421;-92
2022/09/01 06:24:38;;;;;;;22.30;10.07;;;;;;;19.74;100.00;99111.38;5074635;28;20630;-91
2022/09/01 06:27:08;;;;;;;22.35;10.00;;;;;;;20.08;100.00;99117.97;5071237;28;20092;-90
2022/09/01 06:29:38;;;;;;;17.33;9.45;;;;;;;20.19;100.00;99117.47;5082900;28;20039;-92
2022/09/01 06:32:09;;;;;;;25.98;10.43;;;;;;;20.15;100.00;99109.75;5073086;28;20020;-91
2022/09/01 06:34:37;;;;;;;21.40;9.90;;;;;;;19.48;100.00;99106.28;5050939;28;20032;-91
2022/09/01 06:37:03;;;;;;;23.73;9.63;;;;;;;20.17;100.00;99111.41;5056907;28;20114;-91
2022/09/01 06:39:30;;;;;;;19.25;9.13;;;;;;;20.10;100.00;99113.44;5061120;28;20036;-90
2022/09/01 06:41:56;;;;;;;19.92;8.80;;;;;;;19.99;100.00;99107.75;5076432;28;20111;-95
2022/09/01 06:44:23;;;;;;;20.40;9.13;;;;;;;20.35;100.00;99115.06;5064951;28;20015;-92
2022/09/01 06:46:50;;;;;;;19.55;8.73;;;;;;;19.72;100.00;99113.25;5051209;28;20078;-91
2022/09/01 06:49:16;;;;;;;20.40;8.57;;;;;;;19.32;100.00;99112.19;5054271;28;20541;-92
2022/09/01 06:51:41;;;;;;;20.08;9.25;;;;;;;20.08;100.00;99111.78;5050503;28;20036;-90
2022/09/01 06:54:07;;;;;;;22.08;10.70;;;;;;;20.72;100.00;99110.78;5058421;28;20040;-92
2022/09/01 06:56:33;;;;;;;20.42;9.35;;;;;;;20.50;100.00;99112.66;5070367;28;20686;-94
2022/09/01 06:59:03;;;;;;;17.55;8.70;;;;;;;20.59;100.00;99109.59;5064379;28;20034;-90
2022/09/01 07:01:30;;;;;;;16.63;8.48;;;;;;;20.09;100.00;99111.72;5054428;28;20035;-92
2022/09/01 07:03:55;;;;;;;19.70;9.70;;;;;;;20.28;100.00;99113.59;5055568;28;20104;-92
2022/09/01 07:06:26;;;;;;;15.45;8.27;;;;;;;19.81;100.00;99108.53;5065825;28;20027;-93
2022/09/01 07:08:57;;;;;;;19.60;9.55;;;;;;;20.16;100.00;99111.47;5058678;28;20059;-92
2022/09/01 07:11:31;;;;;;;17.27;8.65;;;;;;;20.45;100.00;99116.34;5089460;28;20035;-95
2022/09/01 07:14:03;;;;;;;18.00;8.50;;;;;;;19.73;100.00;99107.00;5085699;22;20054;-94
2022/09/01 07:16:31;;;;;;;16.15;8.75;;;;;;;20.38;100.00;99109.63;4980961;28;20038;-94
2022/09/01 07:18:59;;;;;;;15.05;8.75;;;;;;;20.17;100.00;99114.06;4972309;28;20067;-95
2022/09/01 07:21:26;;;;;;;15.93;8.60;;;;;;;20.20;100.00;99115.72;4974950;28;20042;-94
2022/09/01 07:23:52;;;;;;;19.15;8.63;;;;;;;20.00;100.00;99111.25;4977021;28;20040;-95
2022/09/01 07:26:19;;;;;;;14.75;7.22;;;;;;;20.18;100.00;99112.25;4971736;28;20034;-95
2022/09/01 07:28:46;;;;;;;18.75;7.78;;;;;;;20.92;100.00;99117.00;4979049;28;20037;-92
2022/09/01 07:31:30;;;;;;;20.13;6.97;;;;;;;20.06;100.00;99113.66;4964523;28;20043;-95
2022/09/01 07:33:58;;;;;;;14.40;6.85;;;;;;;20.70;100.00;99123.25;4977185;28;20033;-95
2022/09/01 07:36:24;;;;;;;16.35;7.03;;;;;;;20.42;100.00;99113.00;4972214;28;20126;-94
2022/09/01 07:38:52;;;;;;;14.70;6.80;;;;;;;20.12;100.00;99118.69;4965339;28;20030;-94
2022/09/01 07:41:20;;;;;;;19.15;6.82;;;;;;;21.07;100.00;99118.06;4972021;28;20046;-94
2022/09/01 07:43:51;;;;;;;14.10;6.20;;;;;;;21.09;100.00;99117.06;4970889;28;20038;-95
2022/09/01 07:46:18;;;;;;;13.65;6.18;;;;;;;20.71;100.00;99114.38;4970725;28;20038;-95
2022/09/01 07:48:44;;;;;;;11.13;5.32;;;;;;;20.55;100.00;99116.81;4968412;28;20800;-96
2022/09/01 07:51:12;;;;;;;13.02;5.20;;;;;;;20.70;100.00;99115.31;4969019;28;20027;-92
2022/09/01 07:53:38;;;;;;;14.05;5.15;;;;;;;21.21;100.00;99120.06;4966008;28;20030;-95
2022/09/01 07:56:09;;;;;;;11.32;4.85;;;;;;;20.87;100.00;99111.88;4974095;28;20042;-95
2022/09/01 07:58:37;;;;;;;12.50;4.40;;;;;;;20.95;100.00;99119.50;4970532;28;20026;-94
2022/09/01 08:01:08;;;;;;;12.50;4.80;;;;;;;20.78;100.00;99113.19;4970822;28;20547;-93
2022/09/01 08:03:34;;;;;;;9.70;3.90;;;;;;;21.03;100.00;99106.75;4971639;28;20056;-95
2022/09/01 08:06:09;;;;;;;9.98;4.15;;;;;;;21.12;100.00;99102.81;4976451;28;20113;-94
2022/09/01 08:08:38;;;;;;;12.38;3.63;;;;;;;21.46;100.00;99104.72;4973459;28;20063;-95
2022/09/01 08:11:05;;;;;;;9.55;3.45;;;;;;;23.39;100.00;99103.69;4963499;28;20094;-94
2022/09/01 08:13:33;;;;;;;10.18;3.35;;;;;;;22.67;100.00;99098.69;4968156;28;20081;-93
2022/09/01 08:16:05;;;;;;;12.82;3.50;;;;;;;22.78;100.00;99100.78;4966440;28;20118;-92
2022/09/01 08:18:31;;;;;;;12.77;2.78;;;;;;;22.04;100.00;99105.44;4965819;28;20035;-94
2022/09/01 08:20:57;;;;;;;7.70;2.60;;;;;;;22.11;100.00;99100.69;4987173;28;20101;-93
2022/09/01 08:23:25;;;;;;;8.27;2.60;;;;;;;21.93;100.00;99102.47;4966973;28;20035;-94
2022/09/01 08:25:52;;;;;;;10.13;2.40;;;;;;;22.99;100.00;99098.75;4971980;28;20015;-95
2022/09/01 08:28:19;;;;;;;9.82;2.80;;;;;;;22.81;100.00;99100.59;4973018;28;20035;-95
2022/09/01 08:30:47;;;;;;;5.65;1.80;;;;;;;22.26;100.00;99097.22;4969889;28;20487;-94
2022/09/01 08:33:13;;;;;;;11.43;2.50;;;;;;;22.93;100.00;99099.09;4965139;28;21453;-94
2022/09/01 08:35:41;;;;;;;10.02;2.40;;;;;;;23.05;100.00;99100.19;4971254;28;20066;-95
2022/09/01 08:38:07;;;;;;;8.07;2.03;;;;;;;22.95;100.00;99102.50;4972222;28;20031;-96
2022/09/01 08:40:33;;;;;;;7.20;1.85;;;;;;;22.64;100.00;99099.72;4971861;28;20037;-96
2022/09/01 08:43:36;;;;;;;8.52;1.77;;;;;;;22.16;100.00;99103.97;4974395;28;20106;-95
2022/09/01 08:46:33;;;;;;;7.88;1.98;;;;;;;22.73;100.00;99100.16;4985213;28;20030;-94
2022/09/01 08:49:03;;;;;;;9.90;1.90;;;;;;;23.41;100.00;99104.44;4972315;28;20109;-96
2022/09/01 08:51:52;;;;;;;7.63;1.80;;;;;;;22.42;100.00;99104.44;4970337;28;20031;-95
2022/09/01 08:54:39;;;;;;;6.38;1.63;;;;;;;22.67;100.00;99093.34;4968436;28;20038;-93
2022/09/01 08:57:13;;;;;;;10.32;1.90;;;;;;;22.81;100.00;99101.47;4987972;28;20030;-93
2022/09/01 08:59:39;;;;;;;9.23;1.58;;;;;;;22.32;100.00;99098.72;4978534;28;20042;-95
2022/09/01 09:02:25;;;;;;;7.72;1.90;;;;;;;22.65;100.00;99096.09;4982355;28;20034;-92
2022/09/01 09:05:03;;;;;;;5.60;1.50;;;;;;;23.41;100.00;99099.13;4965455;28;20018;-93
2022/09/01 09:07:38;;;;;;;9.35;1.55;;;;;;;22.94;100.00;99098.16;4969606;28;20101;-93
2022/09/01 09:10:14;;;;;;;7.82;1.35;;;;;;;22.64;100.00;99097.06;4983693;28;20026;-95
2022/09/01 09:13:20;;;;;;;9.25;1.80;;;;;;;22.92;100.00;99094.69;4966637;28;20372;-93
2022/09/01 09:16:01;;;;;;;9.02;1.75;;;;;;;23.55;100.00;99087.69;4924055;29;20126;-92
2022/09/01 09:18:39;;;;;;;5.50;1.65;;;;;;;23.49;100.00;99087.13;4907257;29;20049;-93
2022/09/01 09:21:35;;;;;;;7.90;1.38;;;;;;;23.72;100.00;99092.06;4912156;29;20222;-94
2022/09/01 09:24:46;;;;;;;6.30;1.50;;;;;;;22.98;100.00;99089.06;4915742;29;20125;-94
2022/09/01 09:27:18;;;;;;;6.30;1.60;;;;;;;22.93;100.00;99083.97;4923192;29;20046;-94
2022/09/01 09:29:56;;;;;;;9.93;1.73;;;;;;;22.17;100.00;99071.13;4909368;29;20070;-95
2022/09/01 09:32:24;;;;;;;6.57;1.60;;;;;;;22.97;100.00;99064.25;4911927;29;20089;-94
2022/09/01 09:34:50;;;;;;;8.70;1.75;;;;;;;22.65;100.00;99066.84;4925248;29;20035;-92
2022/09/01 09:37:22;;;;;;;9.48;1.55;;;;;;;24.22;100.00;99066.94;4920454;29;20520;-93
2022/09/01 09:40:10;;;;;;;9.13;1.60;;;;;;;24.13;100.00;99056.81;4907942;29;20063;-93
2022/09/01 09:42:38;;;;;;;8.43;1.70;;;;;;;24.87;100.00;99058.50;4923817;29;20492;-93
2022/09/01 09:45:17;;;;;;;11.98;1.75;;;;;;;24.71;100.00;99063.06;4919931;29;20887;-92
2022/09/01 09:47:45;;;;;;;7.55;1.55;;;;;;;24.49;100.00;99063.53;4922260;29;20127;-93
2022/09/01 09:50:18;;;;;;;7.10;1.40;;;;;;;24.81;100.00;99066.03;4909007;29;20032;-93
2022/09/01 09:52:45;;;;;;;;;;;;;;;23.97;100.00;99062.22;4946737;28;20133;-95
2022/09/01 09:55:30;;;;;;;10.07;1.63;;;;;;;23.45;100.00;99064.28;4945991;28;19922;-93
2022/09/01 10:01:07;;;;;;;6.18;1.40;;;;;;;24.31;100.00;99057.50;4945644;28;20081;-94
2022/09/01 10:03:42;;;;;;;7.47;1.58;;;;;;;24.59;100.00;99061.13;4949656;28;20038;-93
2022/09/01 10:06:28;;;;;;;6.90;1.42;;;;;;;23.47;100.00;99061.53;4947834;28;20060;-94
2022/09/01 10:09:06;;;;;;;6.00;1.45;;;;;;;24.32;100.00;99053.91;4949211;28;20070;-94
2022/09/01 10:11:38;;;;;;;7.55;1.83;;;;;;;24.92;100.00;99054.69;4954572;28;20077;-94
2022/09/01 10:14:34;;;;;;;6.10;1.38;;;;;;;25.21;100.00;99068.81;4958333;28;20058;-96
2022/09/01 10:17:05;;;;;;;7.80;1.50;;;;;;;24.39;100.00;99063.22;4977165;28;20078;-94
2022/09/01 10:19:34;;;;;;;7.93;1.23;;;;;;;24.57;100.00;99063.06;4963590;28;20035;-93
2022/09/01 10:22:02;;;;;;;6.35;1.60;;;;;;;23.35;100.00;99060.41;4960746;28;20073;-95
2022/09/01 10:24:35;;;;;;;7.13;1.50;;;;;;;24.47;100.00;99052.94;4969466;28;20030;-96
2022/09/01 10:27:06;;;;;;;5.65;1.42;;;;;;;24.62;100.00;99061.84;4972736;28;20045;-94
2022/09/01 10:29:41;;;;;;;11.82;1.77;;;;;;;25.10;100.00;99044.63;4973034;28;20070;-93
2022/09/01 10:32:21;;;;;;;6.70;1.35;;;;;;;25.93;100.00;99041.84;4974578;28;20026;-95
2022/09/01 10:34:49;;;;;;;8.35;1.60;;;;;;;24.39;100.00;99044.56;4974078;28;20069;-92
2022/09/01 10:37:18;;;;;;;5.20;1.20;;;;;;;24.56;100.00;99045.34;4977548;28;20042;-95
2022/09/01 10:40:18;;;;;;;6.15;1.58;;;;;;;24.12;100.00;99042.66;4975764;28;20062;-94
2022/09/01 10:42:52;;;;;;;7.32;1.55;;;;;;;24.62;100.00;99040.53;4984758;28;20042;-95
2022/09/01 10:45:36;;;;;;;5.20;1.35;;;;;;;25.17;100.00;99033.44;4970550;28;20030;-93
2022/09/01 10:48:37;;;;;;;7.20;1.50;;;;;;;26.22;100.00;99034.53;4965391;28;20054;-94
2022/09/01 10:51:11;;;;;;;5.93;1.42;;;;;;;24.84;100.00;99034.69;4958887;28;20055;-93
2022/09/01 10:53:40;;;;;;;9.20;1.92;;;;;;;25.14;100.00;99027.47;4965484;28;20037;-94
2022/09/01 10:56:39;;;;;;;16.70;1.33;;;;;;;26.40;100.00;99029.72;4970513;28;20085;-93
2022/09/01 10:59:25;;;;;;;7.13;1.60;;;;;;;26.37;100.00;99015.69;4991940;28;20101;-96
2022/09/01 11:01:52;;;;;;;5.20;1.30;;;;;;;26.58;100.00;99024.88;4978999;28;20221;-95
2022/09/01 11:04:29;;;;;;;6.25;1.30;;;;;;;27.74;100.00;99023.66;4980437;28;20058;-96
2022/09/01 11:07:05;;;;;;;5.78;1.45;;;;;;;27.64;100.00;99023.50;4974879;28;20035;-95
2022/09/01 11:09:41;;;;;;;7.45;1.50;;;;;;;28.04;100.00;99015.09;4971944;28;20043;-95
2022/09/01 11:12:06;;;;;;;6.13;1.50;;;;;;;26.46;100.00;99009.72;4972953;28;20082;-94
2022/09/01 11:14:34;;;;;;;7.60;1.50;;;;;;;26.12;100.00;99011.22;4976695;28;20059;-94
2022/09/01 11:17:09;;;;;;;12.27;1.60;;;;;;;27.18;100.00;98995.63;4971787;28;20053;-93
2022/09/01 11:19:42;;;;;;;4.57;1.13;;;;;;;26.38;100.00;98993.34;4987026;28;20035;-95
2022/09/01 11:22:20;;;;;;;10.75;1.70;;;;;;;26.97;100.00;98992.69;4975023;28;20031;-92
2022/09/01 11:25:05;;;;;;;6.70;1.40;;;;;;;26.45;100.00;98994.63;4983303;28;20034;-94
2022/09/01 11:27:48;;;;;;;5.10;1.35;;;;;;;24.96;100.00;98993.00;4968267;28;20042;-93
2022/09/01 11:30:31;;;;;;;6.20;1.25;;;;;;;25.45;100.00;98994.28;4971577;28;20101;-95
2022/09/01 11:33:12;;;;;;;6.13;1.50;;;;;;;25.66;100.00;99000.00;4970258;28;20043;-94
2022/09/01 11:35:55;;;;;;;6.13;1.23;;;;;;;26.12;100.00;98971.13;4979707;28;20082;-96
2022/09/01 11:38:22;;;;;;;5.90;1.40;;;;;;;26.72;100.00;98981.13;4991634;28;20042;-95
2022/09/01 11:40:55;;;;;;;6.78;1.20;;;;;;;27.52;100.00;98986.94;4978023;28;20144;-95
2022/09/01 11:43:29;;;;;;;5.43;1.10;;;;;;;26.55;100.00;98968.91;4977534;28;20022;-95
2022/09/01 11:46:20;;;;;;;6.95;1.23;;;;;;;25.27;100.00;98982.16;4972646;28;20110;-96
2022/09/01 11:48:48;;;;;;;6.88;1.40;;;;;;;26.47;100.00;98987.34;4988288;28;20495;-95
2022/09/01 11:51:14;;;;;;;6.75;1.15;;;;;;;25.65;100.00;98976.06;4974043;28;20073;-96
2022/09/01 11:53:42;;;;;;;5.65;1.20;;;;;;;25.97;100.00;98973.88;4974341;28;20106;-95
2022/09/01 11:56:37;;;;;;;7.35;1.55;;;;;;;25.61;100.00;98969.22;4987562;28;20035;-96